JAL283 RJTT-RJOC
Flight info
| Callsign | JAL283 |
|---|---|
| Flight time | 1h 7m |
| Altitude | 30000 |
| Route | BEKLA Y18 RAKDA |
| Aircraft | B738/M-SDE2E3FGHIRWXY/LB1 |
Departure
| Time | 2026-04-21 03:49 |
|---|---|
| Airport | Tokyo Haneda International Airport (RJTT) |
Arrival
| Time | 2026-04-21 04:56 |
|---|---|
| Airport | Izumo Enmusubi Airport (RJOC) |
| Time | Latitude | Longitude | Altitude | Speed | Heading |
|---|---|---|---|---|---|
| 2026-04-21 03:29 | 35.54487 | 139.78474 | 27 ft | 0 kts | 60° |
| 2026-04-21 03:40 | 35.54479 | 139.78457 | 26 ft | 2 kts | 60° |
| 2026-04-21 03:41 | 35.54471 | 139.78439 | 23 ft | 2 kts | 60° |
| 2026-04-21 03:41 | 35.54463 | 139.78421 | 24 ft | 2 kts | 62° |
| 2026-04-21 03:41 | 35.54456 | 139.78403 | 26 ft | 2 kts | 70° |
| 2026-04-21 03:41 | 35.54455 | 139.78385 | 26 ft | 1 kts | 144° |
| 2026-04-21 03:42 | 35.54457 | 139.78383 | 27 ft | 0 kts | 149° |
| 2026-04-21 03:44 | 35.54456 | 139.78384 | 26 ft | 1 kts | 149° |
| 2026-04-21 03:44 | 35.54433 | 139.78400 | 23 ft | 8 kts | 150° |
| 2026-04-21 03:44 | 35.54357 | 139.78454 | 23 ft | 13 kts | 150° |
| 2026-04-21 03:44 | 35.54292 | 139.78514 | 27 ft | 10 kts | 115° |
| 2026-04-21 03:45 | 35.54311 | 139.78595 | 27 ft | 13 kts | 60° |
| 2026-04-21 03:45 | 35.54368 | 139.78715 | 31 ft | 17 kts | 60° |
| 2026-04-21 03:45 | 35.54428 | 139.78841 | 34 ft | 17 kts | 59° |
| 2026-04-21 03:45 | 35.54485 | 139.78963 | 39 ft | 16 kts | 59° |
| 2026-04-21 03:46 | 35.54542 | 139.79081 | 37 ft | 17 kts | 61° |
| 2026-04-21 03:46 | 35.54610 | 139.79225 | 30 ft | 23 kts | 59° |
| 2026-04-21 03:46 | 35.54694 | 139.79403 | 27 ft | 24 kts | 59° |
| 2026-04-21 03:46 | 35.54775 | 139.79573 | 26 ft | 23 kts | 60° |
| 2026-04-21 03:47 | 35.54767 | 139.79692 | 26 ft | 15 kts | 148° |
| 2026-04-21 03:47 | 35.54679 | 139.79756 | 25 ft | 15 kts | 151° |
| 2026-04-21 03:47 | 35.54591 | 139.79827 | 25 ft | 16 kts | 124° |
| 2026-04-21 03:47 | 35.54613 | 139.79949 | 27 ft | 15 kts | 60° |
| 2026-04-21 03:48 | 35.54668 | 139.80012 | 28 ft | 8 kts | 358° |
| 2026-04-21 03:48 | 35.54722 | 139.79980 | 28 ft | 12 kts | 329° |
| 2026-04-21 03:48 | 35.54942 | 139.79823 | 28 ft | 72 kts | 329° |
| 2026-04-21 03:48 | 35.55577 | 139.79376 | 26 ft | 136 kts | 330° |
| 2026-04-21 03:49 | 35.56491 | 139.78725 | 415 ft | 159 kts | 333° |
| 2026-04-21 03:49 | 35.57576 | 139.78267 | 1059 ft | 172 kts | 2° |
| 2026-04-21 03:49 | 35.58633 | 139.78745 | 2147 ft | 164 kts | 36° |
| 2026-04-21 03:49 | 35.59343 | 139.79941 | 2710 ft | 192 kts | 56° |
| 2026-04-21 03:50 | 35.60060 | 139.81483 | 3052 ft | 223 kts | 56° |
| 2026-04-21 03:50 | 35.60829 | 139.83227 | 3483 ft | 242 kts | 65° |
| 2026-04-21 03:50 | 35.61072 | 139.85389 | 3775 ft | 270 kts | 89° |
| 2026-04-21 03:50 | 35.61019 | 139.87756 | 4538 ft | 281 kts | 90° |
| 2026-04-21 03:51 | 35.60975 | 139.90158 | 5474 ft | 284 kts | 90° |
| 2026-04-21 03:51 | 35.61130 | 139.92611 | 6186 ft | 292 kts | 72° |
| 2026-04-21 03:51 | 35.62083 | 139.94791 | 6945 ft | 292 kts | 45° |
| 2026-04-21 03:51 | 35.63707 | 139.96241 | 7683 ft | 289 kts | 17° |
| 2026-04-21 03:52 | 35.65647 | 139.96646 | 8461 ft | 282 kts | 349° |
| 2026-04-21 03:52 | 35.67486 | 139.95989 | 9273 ft | 273 kts | 324° |
| 2026-04-21 03:52 | 35.68894 | 139.94493 | 10100 ft | 266 kts | 303° |
| 2026-04-21 03:52 | 35.69781 | 139.92486 | 10584 ft | 276 kts | 285° |
| 2026-04-21 03:53 | 35.70288 | 139.90103 | 10770 ft | 300 kts | 281° |
| 2026-04-21 03:53 | 35.70742 | 139.87536 | 10946 ft | 322 kts | 280° |
| 2026-04-21 03:53 | 35.71224 | 139.84713 | 11109 ft | 344 kts | 280° |
| 2026-04-21 03:53 | 35.71731 | 139.81763 | 11362 ft | 359 kts | 280° |
| 2026-04-21 03:54 | 35.72263 | 139.78732 | 11924 ft | 364 kts | 280° |
| 2026-04-21 03:54 | 35.72805 | 139.75691 | 12641 ft | 365 kts | 280° |
| 2026-04-21 03:54 | 35.73354 | 139.72636 | 13325 ft | 367 kts | 280° |
| 2026-04-21 03:54 | 35.73900 | 139.69602 | 13909 ft | 369 kts | 280° |
| 2026-04-21 03:55 | 35.74458 | 139.66516 | 14540 ft | 369 kts | 280° |
| 2026-04-21 03:55 | 35.75015 | 139.63434 | 15171 ft | 369 kts | 279° |
| 2026-04-21 03:55 | 35.75570 | 139.60352 | 15772 ft | 369 kts | 279° |
| 2026-04-21 03:55 | 35.76126 | 139.57265 | 16343 ft | 370 kts | 279° |
| 2026-04-21 03:56 | 35.76682 | 139.54164 | 16889 ft | 371 kts | 279° |
| 2026-04-21 03:56 | 35.77239 | 139.51059 | 17415 ft | 372 kts | 279° |
| 2026-04-21 03:56 | 35.77796 | 139.47942 | 17952 ft | 373 kts | 279° |
| 2026-04-21 03:56 | 35.78355 | 139.44815 | 18412 ft | 374 kts | 279° |
| 2026-04-21 03:57 | 35.78913 | 139.41684 | 18833 ft | 375 kts | 279° |
| 2026-04-21 03:57 | 35.79473 | 139.38536 | 19198 ft | 377 kts | 279° |
| 2026-04-21 03:57 | 35.80035 | 139.35377 | 19574 ft | 378 kts | 279° |
| 2026-04-21 03:57 | 35.80597 | 139.32206 | 19956 ft | 380 kts | 279° |
| 2026-04-21 03:58 | 35.81161 | 139.29023 | 20329 ft | 381 kts | 279° |
| 2026-04-21 03:58 | 35.81726 | 139.25831 | 20704 ft | 382 kts | 279° |
| 2026-04-21 03:58 | 35.82292 | 139.22627 | 21076 ft | 383 kts | 278° |
| 2026-04-21 03:58 | 35.82849 | 139.19413 | 21394 ft | 384 kts | 277° |
| 2026-04-21 03:59 | 35.83176 | 139.16152 | 21734 ft | 384 kts | 271° |
| 2026-04-21 03:59 | 35.83156 | 139.12872 | 22075 ft | 383 kts | 265° |
| 2026-04-21 03:59 | 35.82975 | 139.09593 | 22372 ft | 384 kts | 265° |
| 2026-04-21 04:00 | 35.82633 | 139.02976 | 22968 ft | 388 kts | 265° |
| 2026-04-21 04:00 | 35.82469 | 138.99668 | 23390 ft | 387 kts | 265° |
| 2026-04-21 04:00 | 35.82307 | 138.96356 | 23701 ft | 388 kts | 265° |
| 2026-04-21 04:00 | 35.82146 | 138.93027 | 23929 ft | 390 kts | 265° |
| 2026-04-21 04:01 | 35.81980 | 138.89683 | 24171 ft | 393 kts | 265° |
| 2026-04-21 04:01 | 35.81811 | 138.86308 | 24363 ft | 395 kts | 265° |
| 2026-04-21 04:01 | 35.81645 | 138.82929 | 24686 ft | 395 kts | 265° |
| 2026-04-21 04:01 | 35.81478 | 138.79608 | 25412 ft | 383 kts | 265° |
| 2026-04-21 04:02 | 35.81313 | 138.76330 | 25685 ft | 385 kts | 265° |
| 2026-04-21 04:02 | 35.81136 | 138.73014 | 25744 ft | 390 kts | 265° |
| 2026-04-21 04:02 | 35.80964 | 138.69669 | 25952 ft | 393 kts | 265° |
| 2026-04-21 04:02 | 35.80802 | 138.66302 | 26151 ft | 395 kts | 265° |
| 2026-04-21 04:03 | 35.80629 | 138.62922 | 26388 ft | 396 kts | 265° |
| 2026-04-21 04:03 | 35.80450 | 138.59541 | 26712 ft | 396 kts | 265° |
| 2026-04-21 04:03 | 35.80269 | 138.56167 | 27117 ft | 393 kts | 265° |
| 2026-04-21 04:03 | 35.80086 | 138.52807 | 27520 ft | 392 kts | 265° |
| 2026-04-21 04:04 | 35.79906 | 138.49470 | 28010 ft | 389 kts | 265° |
| 2026-04-21 04:04 | 35.79732 | 138.46158 | 28555 ft | 385 kts | 265° |
| 2026-04-21 04:04 | 35.79558 | 138.42894 | 29154 ft | 379 kts | 265° |
| 2026-04-21 04:04 | 35.79377 | 138.39656 | 29543 ft | 379 kts | 265° |
| 2026-04-21 04:05 | 35.79184 | 138.36411 | 29792 ft | 382 kts | 264° |
| 2026-04-21 04:05 | 35.78793 | 138.29828 | 29885 ft | 388 kts | 265° |
| 2026-04-21 04:06 | 35.78437 | 138.23255 | 29891 ft | 386 kts | 265° |
| 2026-04-21 04:06 | 35.78082 | 138.16662 | 29892 ft | 386 kts | 265° |
| 2026-04-21 04:07 | 35.77724 | 138.10074 | 29883 ft | 385 kts | 265° |
| 2026-04-21 04:07 | 35.77363 | 138.03519 | 29923 ft | 383 kts | 265° |
| 2026-04-21 04:08 | 35.76996 | 137.96977 | 29913 ft | 383 kts | 265° |
| 2026-04-21 04:08 | 35.76626 | 137.90445 | 29912 ft | 382 kts | 265° |
| 2026-04-21 04:09 | 35.76232 | 137.83903 | 29913 ft | 386 kts | 264° |
| 2026-04-21 04:09 | 35.75834 | 137.77293 | 29936 ft | 389 kts | 265° |
| 2026-04-21 04:10 | 35.75391 | 137.70626 | 29924 ft | 392 kts | 264° |
| 2026-04-21 04:10 | 35.74872 | 137.63951 | 29934 ft | 391 kts | 264° |
| 2026-04-21 04:11 | 35.74356 | 137.57280 | 29940 ft | 391 kts | 264° |
| 2026-04-21 04:11 | 35.73846 | 137.50618 | 29944 ft | 391 kts | 265° |
| 2026-04-21 04:12 | 35.73083 | 137.43992 | 29947 ft | 392 kts | 261° |
| 2026-04-21 04:12 | 35.72124 | 137.37384 | 29947 ft | 393 kts | 261° |
| 2026-04-21 04:13 | 35.71323 | 137.31888 | 29950 ft | 392 kts | 261° |
| 2026-04-21 04:13 | 35.70374 | 137.25317 | 29953 ft | 388 kts | 261° |
| 2026-04-21 04:14 | 35.69435 | 137.18786 | 29945 ft | 387 kts | 262° |
| 2026-04-21 04:14 | 35.68494 | 137.12256 | 29938 ft | 387 kts | 262° |
| 2026-04-21 04:15 | 35.67553 | 137.05741 | 29947 ft | 387 kts | 262° |
| 2026-04-21 04:15 | 35.66609 | 136.99236 | 29946 ft | 386 kts | 262° |
| 2026-04-21 04:16 | 35.65659 | 136.92714 | 29961 ft | 389 kts | 262° |
| 2026-04-21 04:16 | 35.64695 | 136.86123 | 29960 ft | 394 kts | 262° |
| 2026-04-21 04:17 | 35.63719 | 136.79471 | 29968 ft | 397 kts | 262° |
| 2026-04-21 04:17 | 35.62734 | 136.72794 | 29979 ft | 396 kts | 262° |
| 2026-04-21 04:18 | 35.61749 | 136.66147 | 29971 ft | 395 kts | 262° |
| 2026-04-21 04:18 | 35.60763 | 136.59514 | 29982 ft | 395 kts | 262° |
| 2026-04-21 04:19 | 35.59773 | 136.52875 | 29992 ft | 396 kts | 262° |
| 2026-04-21 04:19 | 35.58784 | 136.46269 | 30002 ft | 396 kts | 262° |
| 2026-04-21 04:20 | 35.57777 | 136.39578 | 29991 ft | 400 kts | 262° |
| 2026-04-21 04:20 | 35.56762 | 136.32853 | 30018 ft | 402 kts | 262° |
| 2026-04-21 04:21 | 35.55736 | 136.26084 | 30028 ft | 404 kts | 262° |
| 2026-04-21 04:21 | 35.54705 | 136.19306 | 30038 ft | 404 kts | 262° |
| 2026-04-21 04:22 | 35.53670 | 136.12533 | 30029 ft | 403 kts | 262° |
| 2026-04-21 04:22 | 35.52634 | 136.05784 | 30045 ft | 402 kts | 262° |
| 2026-04-21 04:23 | 35.51595 | 135.99037 | 30054 ft | 402 kts | 262° |
| 2026-04-21 04:23 | 35.50554 | 135.92280 | 30074 ft | 403 kts | 262° |
| 2026-04-21 04:24 | 35.50039 | 135.85494 | 30057 ft | 402 kts | 270° |
| 2026-04-21 04:24 | 35.49896 | 135.78621 | 30062 ft | 404 kts | 270° |
| 2026-04-21 04:25 | 35.49735 | 135.71726 | 30061 ft | 405 kts | 270° |
| 2026-04-21 04:25 | 35.49559 | 135.64818 | 30071 ft | 405 kts | 270° |
| 2026-04-21 04:26 | 35.49374 | 135.57909 | 30084 ft | 405 kts | 270° |
| 2026-04-21 04:26 | 35.49185 | 135.50991 | 30082 ft | 406 kts | 270° |
| 2026-04-21 04:27 | 35.48992 | 135.44063 | 30078 ft | 407 kts | 270° |
| 2026-04-21 04:27 | 35.48795 | 135.37130 | 30082 ft | 407 kts | 270° |
| 2026-04-21 04:28 | 35.48593 | 135.30184 | 30080 ft | 407 kts | 270° |
| 2026-04-21 04:28 | 35.48388 | 135.23239 | 30091 ft | 407 kts | 270° |
| 2026-04-21 04:29 | 35.48180 | 135.16304 | 30101 ft | 407 kts | 270° |
| 2026-04-21 04:29 | 35.48180 | 135.09366 | 30082 ft | 407 kts | 274° |
| 2026-04-21 04:30 | 35.48414 | 135.02435 | 30084 ft | 406 kts | 274° |
| 2026-04-21 04:30 | 35.48653 | 134.95501 | 30075 ft | 407 kts | 274° |
| 2026-04-21 04:31 | 35.48868 | 134.88549 | 30078 ft | 408 kts | 274° |
| 2026-04-21 04:31 | 35.49072 | 134.81584 | 30072 ft | 409 kts | 274° |
| 2026-04-21 04:32 | 35.49271 | 134.74615 | 30074 ft | 408 kts | 274° |
| 2026-04-21 04:32 | 35.49467 | 134.67662 | 30079 ft | 408 kts | 274° |
| 2026-04-21 04:33 | 35.49671 | 134.60764 | 30085 ft | 407 kts | 274° |
| 2026-04-21 04:33 | 35.49854 | 134.53811 | 30084 ft | 408 kts | 274° |
| 2026-04-21 04:34 | 35.50031 | 134.46908 | 30126 ft | 392 kts | 272° |
| 2026-04-21 04:34 | 35.50113 | 134.43657 | 30107 ft | 373 kts | 272° |
| 2026-04-21 04:34 | 35.50193 | 134.40493 | 30113 ft | 371 kts | 272° |
| 2026-04-21 04:35 | 35.50353 | 134.34109 | 30112 ft | 378 kts | 272° |
| 2026-04-21 04:35 | 35.50513 | 134.27639 | 30121 ft | 379 kts | 272° |
| 2026-04-21 04:36 | 35.50670 | 134.21183 | 30090 ft | 373 kts | 272° |
| 2026-04-21 04:36 | 35.50744 | 134.18089 | 30082 ft | 353 kts | 271° |
| 2026-04-21 04:36 | 35.50813 | 134.15147 | 30094 ft | 336 kts | 272° |
| 2026-04-21 04:36 | 35.50878 | 134.12348 | 30093 ft | 321 kts | 272° |
| 2026-04-21 04:37 | 35.50939 | 134.09676 | 30085 ft | 306 kts | 271° |
| 2026-04-21 04:37 | 35.50997 | 134.07124 | 30084 ft | 292 kts | 271° |
| 2026-04-21 04:37 | 35.51052 | 134.04689 | 30087 ft | 279 kts | 271° |
| 2026-04-21 04:37 | 35.51104 | 134.02348 | 29750 ft | 275 kts | 271° |
| 2026-04-21 04:38 | 35.51157 | 133.99979 | 28845 ft | 281 kts | 271° |
| 2026-04-21 04:38 | 35.51211 | 133.97519 | 28091 ft | 293 kts | 271° |
| 2026-04-21 04:38 | 35.51266 | 133.94986 | 27974 ft | 302 kts | 271° |
| 2026-04-21 04:38 | 35.51324 | 133.92354 | 27610 ft | 315 kts | 271° |
| 2026-04-21 04:39 | 35.51382 | 133.89621 | 26688 ft | 324 kts | 271° |
| 2026-04-21 04:39 | 35.51441 | 133.86821 | 25419 ft | 334 kts | 271° |
| 2026-04-21 04:39 | 35.51502 | 133.83922 | 24157 ft | 344 kts | 271° |
| 2026-04-21 04:39 | 35.51562 | 133.80959 | 22880 ft | 350 kts | 271° |
| 2026-04-21 04:40 | 35.51623 | 133.77970 | 21789 ft | 350 kts | 272° |
| 2026-04-21 04:40 | 35.51683 | 133.75003 | 20879 ft | 345 kts | 272° |
| 2026-04-21 04:40 | 35.51742 | 133.72082 | 20024 ft | 341 kts | 272° |
| 2026-04-21 04:40 | 35.51799 | 133.69185 | 19130 ft | 338 kts | 273° |
| 2026-04-21 04:41 | 35.51851 | 133.66306 | 18219 ft | 337 kts | 272° |
| 2026-04-21 04:41 | 35.51579 | 133.63452 | 17458 ft | 335 kts | 262° |
| 2026-04-21 04:41 | 35.50809 | 133.60737 | 16409 ft | 342 kts | 253° |
| 2026-04-21 04:41 | 35.49834 | 133.58052 | 15505 ft | 343 kts | 252° |
| 2026-04-21 04:42 | 35.48856 | 133.55430 | 14963 ft | 334 kts | 252° |
| 2026-04-21 04:42 | 35.47893 | 133.52837 | 14447 ft | 333 kts | 252° |
| 2026-04-21 04:42 | 35.46940 | 133.50250 | 13917 ft | 333 kts | 252° |
| 2026-04-21 04:42 | 35.45994 | 133.47665 | 13331 ft | 332 kts | 252° |
| 2026-04-21 04:43 | 35.45051 | 133.45075 | 12711 ft | 333 kts | 252° |
| 2026-04-21 04:43 | 35.44108 | 133.42483 | 12161 ft | 332 kts | 252° |
| 2026-04-21 04:43 | 35.43168 | 133.39898 | 11631 ft | 331 kts | 252° |
| 2026-04-21 04:43 | 35.42231 | 133.37322 | 11108 ft | 330 kts | 252° |
| 2026-04-21 04:44 | 35.41310 | 133.34796 | 10948 ft | 319 kts | 252° |
| 2026-04-21 04:44 | 35.40419 | 133.32359 | 10777 ft | 308 kts | 252° |
| 2026-04-21 04:44 | 35.39559 | 133.30005 | 10650 ft | 297 kts | 252° |
| 2026-04-21 04:44 | 35.38730 | 133.27730 | 10511 ft | 288 kts | 252° |
| 2026-04-21 04:45 | 35.37928 | 133.25526 | 10398 ft | 279 kts | 253° |
| 2026-04-21 04:45 | 35.37159 | 133.23416 | 10266 ft | 271 kts | 253° |
| 2026-04-21 04:45 | 35.36403 | 133.21344 | 10145 ft | 262 kts | 253° |
| 2026-04-21 04:45 | 35.35659 | 133.19314 | 10051 ft | 254 kts | 253° |
| 2026-04-21 04:46 | 35.34951 | 133.17379 | 9828 ft | 252 kts | 253° |
| 2026-04-21 04:46 | 35.34226 | 133.15391 | 9334 ft | 259 kts | 252° |
| 2026-04-21 04:46 | 35.33487 | 133.13374 | 9000 ft | 260 kts | 252° |
| 2026-04-21 04:46 | 35.32743 | 133.11348 | 8715 ft | 261 kts | 252° |
| 2026-04-21 04:47 | 35.31994 | 133.09310 | 8410 ft | 264 kts | 252° |
| 2026-04-21 04:47 | 35.31240 | 133.07262 | 8108 ft | 264 kts | 251° |
| 2026-04-21 04:47 | 35.30486 | 133.05221 | 7835 ft | 263 kts | 251° |
| 2026-04-21 04:47 | 35.29731 | 133.03170 | 7534 ft | 265 kts | 251° |
| 2026-04-21 04:48 | 35.28972 | 133.01109 | 7263 ft | 266 kts | 251° |
| 2026-04-21 04:48 | 35.28207 | 132.99034 | 6961 ft | 269 kts | 250° |
| 2026-04-21 04:48 | 35.27433 | 132.96938 | 6650 ft | 271 kts | 250° |
| 2026-04-21 04:48 | 35.26655 | 132.94837 | 6339 ft | 271 kts | 250° |
| 2026-04-21 04:49 | 35.25883 | 132.92738 | 6047 ft | 270 kts | 250° |
| 2026-04-21 04:49 | 35.25104 | 132.90633 | 5735 ft | 273 kts | 249° |
| 2026-04-21 04:49 | 35.24319 | 132.88520 | 5463 ft | 272 kts | 249° |
| 2026-04-21 04:49 | 35.23542 | 132.86408 | 5164 ft | 272 kts | 250° |
| 2026-04-21 04:50 | 35.23145 | 132.84200 | 4904 ft | 264 kts | 274° |
| 2026-04-21 04:50 | 35.23156 | 132.81960 | 4642 ft | 265 kts | 273° |
| 2026-04-21 04:50 | 35.23147 | 132.79715 | 4490 ft | 260 kts | 272° |
| 2026-04-21 04:50 | 35.23151 | 132.77494 | 4085 ft | 267 kts | 280° |
| 2026-04-21 04:51 | 35.23749 | 132.75446 | 4055 ft | 250 kts | 305° |
| 2026-04-21 04:51 | 35.24964 | 132.73987 | 3822 ft | 244 kts | 329° |
| 2026-04-21 04:51 | 35.26382 | 132.72971 | 3826 ft | 231 kts | 331° |
| 2026-04-21 04:51 | 35.27744 | 132.72004 | 3715 ft | 220 kts | 328° |
| 2026-04-21 04:52 | 35.28988 | 132.71049 | 3615 ft | 203 kts | 330° |
| 2026-04-21 04:52 | 35.30168 | 132.70300 | 3485 ft | 187 kts | 345° |
| 2026-04-21 04:52 | 35.31462 | 132.70285 | 3232 ft | 188 kts | 14° |
| 2026-04-21 04:52 | 35.32575 | 132.71075 | 3053 ft | 186 kts | 44° |
| 2026-04-21 04:53 | 35.33343 | 132.72390 | 2797 ft | 193 kts | 56° |
| 2026-04-21 04:53 | 35.34038 | 132.73808 | 2611 ft | 197 kts | 57° |
| 2026-04-21 04:53 | 35.34736 | 132.75248 | 2393 ft | 197 kts | 56° |
| 2026-04-21 04:53 | 35.35435 | 132.76703 | 2127 ft | 199 kts | 57° |
| 2026-04-21 04:54 | 35.36122 | 132.78129 | 1885 ft | 187 kts | 57° |
| 2026-04-21 04:54 | 35.36772 | 132.79479 | 1641 ft | 183 kts | 57° |
| 2026-04-21 04:54 | 35.37409 | 132.80802 | 1417 ft | 176 kts | 57° |
| 2026-04-21 04:54 | 35.38028 | 132.82078 | 1174 ft | 168 kts | 58° |
| 2026-04-21 04:55 | 35.38594 | 132.83253 | 969 ft | 150 kts | 58° |
| 2026-04-21 04:55 | 35.39111 | 132.84327 | 754 ft | 143 kts | 63° |
| 2026-04-21 04:55 | 35.39613 | 132.85370 | 605 ft | 143 kts | 59° |
| 2026-04-21 04:55 | 35.40116 | 132.86409 | 387 ft | 141 kts | 62° |
| 2026-04-21 04:56 | 35.40614 | 132.87437 | 172 ft | 139 kts | 63° |
| 2026-04-21 04:56 | 35.41102 | 132.88446 | 20 ft | 130 kts | 63° |
| 2026-04-21 04:56 | 35.41496 | 132.89258 | 9 ft | 76 kts | 60° |
| 2026-04-21 04:56 | 35.41682 | 132.89645 | 15 ft | 43 kts | 60° |
| 2026-04-21 04:57 | 35.41781 | 132.89835 | 20 ft | 14 kts | 39° |
| 2026-04-21 04:57 | 35.41844 | 132.89904 | 25 ft | 9 kts | 84° |
| 2026-04-21 04:57 | 35.41806 | 132.89912 | 23 ft | 8 kts | 239° |
| 2026-04-21 04:57 | 35.41775 | 132.89833 | 20 ft | 16 kts | 239° |
| 2026-04-21 04:58 | 35.41699 | 132.89676 | 16 ft | 25 kts | 239° |
| 2026-04-21 04:58 | 35.41607 | 132.89487 | 10 ft | 26 kts | 239° |
| 2026-04-21 04:58 | 35.41520 | 132.89305 | 8 ft | 24 kts | 239° |
| 2026-04-21 04:58 | 35.41437 | 132.89138 | 8 ft | 23 kts | 239° |
| 2026-04-21 04:59 | 35.41359 | 132.88974 | 9 ft | 22 kts | 239° |
| 2026-04-21 04:59 | 35.41281 | 132.88814 | 10 ft | 21 kts | 239° |
| 2026-04-21 04:59 | 35.41269 | 132.88698 | 10 ft | 10 kts | 315° |
| 2026-04-21 04:59 | 35.41327 | 132.88658 | 8 ft | 10 kts | 345° |
| 2026-04-21 05:00 | 35.41393 | 132.88633 | 9 ft | 9 kts | 330° |
| 2026-04-21 05:00 | 35.41416 | 132.88616 | 8 ft | 0 kts | 329° |
| 2026-04-21 05:00 | 35.41418 | 132.88614 | 10 ft | 0 kts | 329° |